Aeroporto :
LOGIN :

Iscrizione | Disclaimer

   EN    FR    IT 

 










Sommario :    VFR   VFR Marginale   IFR   IFR Intensivo   IFR Molto Intensivo
Visibilità : 
Base nubi : 
>= 8 km
>= 3000ft
5 / 8 km
1000 / 3000 ft
1500m / 5 km
500 / 1000 ft
800 / 1500m
200 / 500 ft
< 800m
< 200 ft
Simboli :   Temporali  Nebbia  Neve Forte  Precipitazioni Forti  Vento > 20 kt
SIGMETs :   Varie  Temporali  Ghiacco  Turbolenza  Onda orograficha  Ceneri Vulcaniche






- Altitudine del aeroporto : 327 ft
- Codice IATA : BHX


EGBB - Birmingham

ULTIMO METAR :
  • 242220Z 21004KT 170V240 CAVOK 09/07 Q0993

METARs OBSOLETI :
  • 242150Z 21004KT 180V240 9999 FEW029 10/08 Q0992
  • 242120Z 24006KT 9999 SCT036 10/08 Q0992
  • 242050Z 26006KT 9999 FEW017 SCT046 10/08 Q0992
  • 242020Z 26007KT 9999 -RA FEW009 BKN018 11/09 Q0992

TAF TAF EGBB
Valido dal 24 a 18 ore il 25 a 18 ore UTC


241700Z 2418/2518 21012KT 9999 SCT025
TEMPO 2418/2422 6000 RA SCT008 BKN014
PROB40
TEMPO 2418/2421 21015G25KT 3000 +RA BKN006
PROB30
TEMPO 2422/2506 7000 SHRA BKN014
PROB30
TEMPO 2500/2512 21015G25KT
TEMPO 2506/2518 7000 SHRA
PROB30
TEMPO 2512/2518 3000 +SHRA BKN020CB
ATIS : +44 121 780 0910



MetMap, La meteo Aeronautica in un colpo d'occhio ! - Copyright ORBIFLY Dicembre 2007 - Disclaimer

ORBIFLY MET'MAP TEAM :

Programmazione e sviluppo : Alexandra Zaïnal
Concezione : Baudouin d'Aumeries
Aiuto per la programmazione : Marc-Olivier Méhu
Supporto tecnico e logistico : Manuel Goepfert
Aiuto per la traduzione : Arnaldo La Scala

Contatto : metmap@orbifly.com




FONTI E CREDITI :

   NOAA